createdAt,value
2018-09-04T00:00:06.876Z,98984.59
2018-09-04T00:00:37.996Z,98978.91
2018-09-04T00:01:09.121Z,98984.70
2018-09-04T00:01:40.300Z,98980.71
2018-09-04T00:02:11.526Z,98981.44
2018-09-04T00:02:42.644Z,98976.11
2018-09-04T00:03:13.812Z,98977.69
2018-09-04T00:03:44.964Z,98976.03
2018-09-04T00:04:16.161Z,98976.03
2018-09-04T00:04:47.335Z,98980.35
2018-09-04T00:05:18.455Z,98978.05
2018-09-04T00:05:49.623Z,98980.61
2018-09-04T00:06:20.865Z,98979.13
2018-09-04T00:06:52.060Z,98990.13
2018-09-04T00:07:23.238Z,98989.99
2018-09-04T00:07:54.352Z,98989.59
2018-09-04T00:08:25.544Z,98984.23
2018-09-04T00:08:56.681Z,98991.33
2018-09-04T00:09:27.845Z,98991.69
2018-09-04T00:09:58.964Z,98992.66
2018-09-04T00:10:30.085Z,98991.47
2018-09-04T00:11:01.252Z,98991.79
2018-09-04T00:11:32.368Z,98987.47
2018-09-04T00:12:03.563Z,98990.60
2018-09-04T00:12:34.684Z,98993.27
2018-09-04T00:13:05.796Z,98990.46
2018-09-04T00:13:36.947Z,98990.82
2018-09-04T00:14:08.156Z,98993.77
2018-09-04T00:14:39.286Z,98997.53
2018-09-04T00:15:10.463Z,98993.05
2018-09-04T00:15:41.576Z,98999.84
2018-09-04T00:16:12.746Z,98997.64
2018-09-04T00:16:43.864Z,98992.47
2018-09-04T00:17:14.988Z,98991.27
2018-09-04T00:17:46.114Z,99006.02
2018-09-04T00:18:17.342Z,99004.47
2018-09-04T00:18:48.468Z,99001.91
2018-09-04T00:19:19.684Z,99005.80
2018-09-04T00:19:50.848Z,99002.78
2018-09-04T00:20:22.077Z,99006.62
2018-09-04T00:20:53.255Z,99006.16
2018-09-04T00:21:24.384Z,99005.55
2018-09-04T00:21:55.552Z,99007.73
2018-09-04T00:22:26.680Z,99007.34
2018-09-04T00:22:57.803Z,99009.39
2018-09-04T00:23:28.968Z,99006.88
2018-09-04T00:24:00.090Z,99010.98
2018-09-04T00:24:31.256Z,99013.41
2018-09-04T00:25:02.436Z,99009.14
2018-09-04T00:25:33.668Z,99012.56
2018-09-04T00:26:04.792Z,99017.27
2018-09-04T00:26:35.966Z,99009.62
2018-09-04T00:27:07.128Z,99014.33
2018-09-04T00:27:38.272Z,99013.00
2018-09-04T00:28:09.384Z,99013.00
2018-09-04T00:28:40.549Z,99014.83
2018-09-04T00:29:11.727Z,99014.08
2018-09-04T00:29:42.873Z,99016.74
2018-09-04T00:30:13.987Z,99014.08
2018-09-04T00:30:45.152Z,99008.76
2018-09-04T00:31:16.276Z,99008.55
2018-09-04T00:31:47.390Z,99014.94
2018-09-04T00:32:18.565Z,99013.89
2018-09-04T00:32:49.693Z,99014.97
2018-09-04T00:33:20.864Z,99015.58
2018-09-04T00:33:52.038Z,99014.75
2018-09-04T00:34:23.225Z,99012.70
2018-09-04T00:34:54.457Z,99019.41
2018-09-04T00:35:25.638Z,99011.89
2018-09-04T00:35:56.759Z,99010.56
2018-09-04T00:36:27.934Z,99015.88
2018-09-04T00:36:59.043Z,99016.60
2018-09-04T00:37:30.208Z,99017.05
2018-09-04T00:38:01.364Z,99018.13
2018-09-04T00:38:32.536Z,99023.56
2018-09-04T00:39:03.657Z,99013.75
2018-09-04T00:39:34.819Z,99016.91
2018-09-04T00:40:05.954Z,99022.09
2018-09-04T00:40:37.159Z,99023.28
2018-09-04T00:41:08.289Z,99020.04
2018-09-04T00:41:39.469Z,99018.60
2018-09-04T00:42:10.685Z,99019.93
2018-09-04T00:42:41.804Z,99023.56
2018-09-04T00:43:12.928Z,99015.94
2018-09-04T00:43:44.189Z,99015.66
2018-09-04T00:44:15.400Z,99018.32
2018-09-04T00:44:46.517Z,99021.59
2018-09-04T00:45:17.750Z,99021.48
2018-09-04T00:45:48.996Z,99020.98
2018-09-04T00:46:20.229Z,99019.18
2018-09-04T00:46:51.436Z,99019.52
2018-09-04T00:47:22.587Z,99023.03
2018-09-04T00:47:53.711Z,99020.84
2018-09-04T00:48:24.883Z,99018.68
2018-09-04T00:48:56.040Z,99019.52
2018-09-04T00:49:27.183Z,99022.53
2018-09-04T00:49:58.358Z,99022.39
2018-09-04T00:50:29.600Z,99018.07
2018-09-04T00:51:00.770Z,99026.05
2018-09-04T00:51:31.893Z,99027.47
2018-09-04T00:52:03.005Z,99024.66
2018-09-04T00:52:34.186Z,99021.25
2018-09-04T00:53:05.402Z,99025.60
2018-09-04T00:53:36.514Z,99022.94
2018-09-04T00:54:07.672Z,99032.50
2018-09-04T00:54:38.834Z,99034.34
2018-09-04T00:55:10.072Z,99033.51
2018-09-04T00:55:41.264Z,99032.17
2018-09-04T00:56:12.497Z,99032.78
2018-09-04T00:56:43.661Z,99038.94
2018-09-04T00:57:14.828Z,99037.50
2018-09-04T00:57:46.064Z,99037.50
2018-09-04T00:58:17.191Z,99033.84
2018-09-04T00:58:48.355Z,99032.72
2018-09-04T00:59:19.652Z,99037.94
2018-09-04T00:59:50.825Z,99034.41
2018-09-04T01:00:21.991Z,99033.95
2018-09-04T01:00:53.186Z,99037.94
2018-09-04T01:01:24.419Z,99036.97
2018-09-04T01:01:55.600Z,99039.88
2018-09-04T01:02:26.718Z,99038.33
2018-09-04T01:02:57.837Z,99044.26
2018-09-04T01:03:29.085Z,99042.45
2018-09-04T01:04:00.265Z,99043.51
2018-09-04T01:04:31.510Z,99043.27
2018-09-04T01:05:02.672Z,99040.95
2018-09-04T01:05:33.854Z,99041.03
2018-09-04T01:06:05.087Z,99040.75
2018-09-04T01:06:36.272Z,99040.28
2018-09-04T01:07:07.464Z,99034.63
2018-09-04T01:07:38.583Z,99044.45
2018-09-04T01:08:09.748Z,99043.15
2018-09-04T01:08:40.964Z,99045.48
2018-09-04T01:09:12.075Z,99047.50
2018-09-04T01:09:43.198Z,99046.17
2018-09-04T01:10:14.376Z,99047.64
2018-09-04T01:10:45.494Z,99048.83
2018-09-04T01:11:16.669Z,99054.16
2018-09-04T01:11:47.787Z,99054.02
2018-09-04T01:12:19.046Z,99045.92
2018-09-04T01:12:50.181Z,99048.00
2018-09-04T01:13:21.360Z,99048.36
2018-09-04T01:13:52.622Z,99053.05
2018-09-04T01:14:23.788Z,99045.70
2018-09-04T01:14:55.005Z,99045.48
2018-09-04T01:15:26.185Z,99046.45
2018-09-04T01:15:57.300Z,99048.03
2018-09-04T01:16:28.483Z,99047.34
2018-09-04T01:16:59.714Z,99048.67
2018-09-04T01:17:30.946Z,99046.98
2018-09-04T01:18:02.065Z,99042.98
2018-09-04T01:18:33.184Z,99041.91
2018-09-04T01:19:04.304Z,99043.02
2018-09-04T01:19:35.429Z,99045.81
2018-09-04T01:20:06.564Z,99042.66
2018-09-04T01:20:37.733Z,99046.78
2018-09-04T01:21:08.859Z,99044.48
2018-09-04T01:21:40.026Z,99045.06
2018-09-04T01:22:11.155Z,99048.58
2018-09-04T01:22:42.320Z,99045.06
2018-09-04T01:23:13.496Z,99046.78
2018-09-04T01:23:44.657Z,99044.12
2018-09-04T01:24:15.782Z,99045.31
2018-09-04T01:24:46.952Z,99046.64
2018-09-04T01:25:18.070Z,99048.72
2018-09-04T01:25:49.279Z,99044.73
2018-09-04T01:26:20.457Z,99049.33
2018-09-04T01:26:51.628Z,99050.05
2018-09-04T01:27:22.752Z,99048.72
2018-09-04T01:27:53.992Z,99047.72
2018-09-04T01:28:25.130Z,99046.39
2018-09-04T01:28:56.282Z,99045.20
2018-09-04T01:29:27.445Z,99049.64
2018-09-04T01:29:59.144Z,99049.72
2018-09-04T01:30:30.424Z,99049.80
2018-09-04T01:31:01.545Z,99052.22
2018-09-04T01:31:32.782Z,99052.08
2018-09-04T01:32:03.910Z,99050.28
2018-09-04T01:32:35.077Z,99052.94
2018-09-04T01:33:06.296Z,99055.92
2018-09-04T01:33:37.534Z,99050.74
2018-09-04T01:34:08.745Z,99048.69
2018-09-04T01:34:39.932Z,99047.72
2018-09-04T01:35:11.109Z,99051.24
2018-09-04T01:35:42.348Z,99054.88
2018-09-04T01:36:13.570Z,99053.69
2018-09-04T01:36:44.744Z,99053.19
2018-09-04T01:37:15.880Z,99059.23
2018-09-04T01:37:47.044Z,99048.58
2018-09-04T01:38:18.261Z,99057.25
2018-09-04T01:38:49.475Z,99052.94
2018-09-04T01:39:20.644Z,99052.36
2018-09-04T01:39:51.832Z,99052.36
2018-09-04T01:40:23.107Z,99052.22
2018-09-04T01:40:54.288Z,99057.89
2018-09-04T01:41:25.434Z,99059.23
2018-09-04T01:41:56.601Z,99054.52
2018-09-04T01:42:27.797Z,99052.22
2018-09-04T01:42:58.972Z,99052.08
2018-09-04T01:43:30.201Z,99055.31
2018-09-04T01:44:01.372Z,99056.36
2018-09-04T01:44:32.493Z,99055.75
2018-09-04T01:45:03.661Z,99055.14
2018-09-04T01:45:34.772Z,99062.77
2018-09-04T01:46:05.999Z,99054.20
2018-09-04T01:46:37.115Z,99061.83
2018-09-04T01:47:08.280Z,99056.28
2018-09-04T01:47:39.408Z,99059.81
2018-09-04T01:48:10.528Z,99057.00
2018-09-04T01:48:41.653Z,99057.70
2018-09-04T01:49:12.769Z,99060.61
2018-09-04T01:49:44.000Z,99060.47
2018-09-04T01:50:15.236Z,99063.34
2018-09-04T01:50:46.362Z,99059.00
2018-09-04T01:51:17.576Z,99061.16
2018-09-04T01:51:48.814Z,99062.84
2018-09-04T01:52:19.993Z,99056.33
2018-09-04T01:52:51.167Z,99062.63
2018-09-04T01:53:22.345Z,99060.33
2018-09-04T01:53:53.527Z,99065.26
2018-09-04T01:54:24.702Z,99058.61
2018-09-04T01:54:55.881Z,99059.29
2018-09-04T01:55:27.109Z,99054.33
2018-09-04T01:55:58.345Z,99061.63
2018-09-04T01:56:29.597Z,99057.38
2018-09-04T01:57:00.772Z,99059.22
2018-09-04T01:57:31.891Z,99059.36
2018-09-04T01:58:03.083Z,99061.52
2018-09-04T01:58:34.269Z,99065.37
2018-09-04T01:59:05.437Z,99058.86
2018-09-04T01:59:36.594Z,99052.34
2018-09-04T02:00:07.766Z,99059.50
2018-09-04T02:00:38.949Z,99060.72
2018-09-04T02:01:10.133Z,99058.16
2018-09-04T02:01:41.310Z,99059.72
2018-09-04T02:02:12.539Z,99063.92
2018-09-04T02:02:43.724Z,99057.63
2018-09-04T02:03:14.848Z,99058.10
2018-09-04T02:03:46.045Z,99058.32
2018-09-04T02:04:17.170Z,99057.71
2018-09-04T02:04:48.278Z,99052.02
2018-09-04T02:05:19.506Z,99059.04
2018-09-04T02:05:50.624Z,99058.90
2018-09-04T02:06:21.737Z,99057.71
2018-09-04T02:06:52.880Z,99051.88
2018-09-04T02:07:24.056Z,99057.34
2018-09-04T02:07:55.220Z,99056.30
2018-09-04T02:08:26.402Z,99057.74
2018-09-04T02:08:57.524Z,99056.63
2018-09-04T02:09:28.756Z,99058.32
2018-09-04T02:09:59.993Z,99054.97
2018-09-04T02:10:31.213Z,99056.77
2018-09-04T02:11:02.344Z,99062.23
2018-09-04T02:11:33.455Z,99056.77
2018-09-04T02:12:04.628Z,99058.10
2018-09-04T02:12:35.746Z,99060.77
2018-09-04T02:13:06.921Z,99061.08
2018-09-04T02:13:38.148Z,99057.89
2018-09-04T02:14:09.336Z,99057.92
2018-09-04T02:14:40.458Z,99062.52
2018-09-04T02:15:11.567Z,99064.86
2018-09-04T02:15:42.769Z,99062.30
2018-09-04T02:16:13.945Z,99055.94
2018-09-04T02:16:45.068Z,99060.17
2018-09-04T02:17:16.244Z,99059.12
2018-09-04T02:17:47.356Z,99060.69
2018-09-04T02:18:18.520Z,99056.95
2018-09-04T02:18:49.753Z,99058.64
2018-09-04T02:19:20.890Z,99061.02
2018-09-04T02:19:52.109Z,99062.35
2018-09-04T02:20:23.284Z,99062.02
2018-09-04T02:20:54.453Z,99059.69
2018-09-04T02:21:25.639Z,99061.41
2018-09-04T02:21:56.808Z,99061.66
2018-09-04T02:22:27.978Z,99062.02
2018-09-04T02:22:59.209Z,99064.69
2018-09-04T02:23:30.384Z,99057.42
2018-09-04T02:24:01.517Z,99053.80
2018-09-04T02:24:32.637Z,99060.45
2018-09-04T02:25:03.753Z,99054.02
2018-09-04T02:25:34.864Z,99060.17
2018-09-04T02:26:06.077Z,99056.90
2018-09-04T02:26:37.195Z,99053.52
2018-09-04T02:27:08.307Z,99054.84
2018-09-04T02:27:39.453Z,99054.77
2018-09-04T02:28:10.572Z,99056.81
2018-09-04T02:28:41.741Z,99055.12
2018-09-04T02:29:12.931Z,99053.92
2018-09-04T02:29:44.092Z,99057.23
2018-09-04T02:30:15.243Z,99055.53
2018-09-04T02:30:46.356Z,99052.15
2018-09-04T02:31:17.502Z,99051.56
2018-09-04T02:31:48.718Z,99045.66
2018-09-04T02:32:19.929Z,99051.09
2018-09-04T02:32:51.118Z,99057.47
2018-09-04T02:33:22.293Z,99056.50
2018-09-04T02:33:53.480Z,99053.84
2018-09-04T02:34:24.663Z,99056.50
2018-09-04T02:34:55.798Z,99054.31
2018-09-04T02:35:26.944Z,99055.03
2018-09-04T02:35:58.124Z,99054.20
2018-09-04T02:36:29.279Z,99057.91
2018-09-04T02:37:00.546Z,99054.28
2018-09-04T02:37:31.668Z,99059.97
2018-09-04T02:38:02.791Z,99058.50
2018-09-04T02:38:33.970Z,99059.97
2018-09-04T02:39:05.092Z,99061.77
2018-09-04T02:39:36.264Z,99056.73
2018-09-04T02:40:07.432Z,99063.52
2018-09-04T02:40:38.705Z,99062.06
2018-09-04T02:41:09.861Z,99061.84
2018-09-04T02:41:41.048Z,99061.16
2018-09-04T02:42:12.173Z,99060.66
2018-09-04T02:42:43.304Z,99059.41
2018-09-04T02:43:14.432Z,99054.45
2018-09-04T02:43:45.657Z,99059.02
2018-09-04T02:44:16.841Z,99060.44
2018-09-04T02:44:48.004Z,99060.33
2018-09-04T02:45:19.179Z,99057.53
2018-09-04T02:45:50.320Z,99059.69
2018-09-04T02:46:21.433Z,99058.75
2018-09-04T02:46:52.740Z,99059.22
2018-09-04T02:47:23.853Z,99053.05
2018-09-04T02:47:55.090Z,99060.33
2018-09-04T02:48:26.289Z,99055.01
2018-09-04T02:48:57.474Z,99053.55
2018-09-04T02:49:28.650Z,99055.70
2018-09-04T02:49:59.819Z,99053.05
2018-09-04T02:50:31.004Z,99055.63
2018-09-04T02:51:02.196Z,99058.75
2018-09-04T02:51:33.465Z,99057.64
2018-09-04T02:52:04.707Z,99054.63
2018-09-04T02:52:35.869Z,99057.78
2018-09-04T02:53:07.084Z,99058.75
2018-09-04T02:53:38.256Z,99058.36
2018-09-04T02:54:09.428Z,99059.47
2018-09-04T02:54:40.649Z,99056.59
2018-09-04T02:55:11.892Z,99059.62
2018-09-04T02:55:43.077Z,99062.29
2018-09-04T02:56:14.193Z,99056.50
2018-09-04T02:56:45.312Z,99059.39
2018-09-04T02:57:16.548Z,99054.20
2018-09-04T02:57:47.667Z,99056.45
2018-09-04T02:58:18.775Z,99057.78
2018-09-04T02:58:49.891Z,99056.95
2018-09-04T02:59:21.013Z,99065.90
2018-09-04T02:59:52.188Z,99063.52
2018-09-04T03:00:23.408Z,99061.73
2018-09-04T03:00:54.592Z,99057.05
2018-09-04T03:01:25.780Z,99063.47
2018-09-04T03:01:56.912Z,99061.45
2018-09-04T03:02:28.115Z,99062.14
2018-09-04T03:02:59.238Z,99062.77
2018-09-04T03:03:30.431Z,99063.11
2018-09-04T03:04:01.613Z,99061.09
2018-09-04T03:04:32.789Z,99061.09
2018-09-04T03:05:03.914Z,99058.06
2018-09-04T03:05:35.032Z,99061.69
2018-09-04T03:06:06.197Z,99057.47
2018-09-04T03:06:37.371Z,99057.61
2018-09-04T03:07:08.500Z,99052.53
2018-09-04T03:07:39.756Z,99053.77
2018-09-04T03:08:10.933Z,99058.27
2018-09-04T03:08:42.696Z,99057.40
2018-09-04T03:09:13.818Z,99054.27
2018-09-04T03:09:45.086Z,99059.59
2018-09-04T03:10:16.212Z,99064.77
2018-09-04T03:10:47.330Z,99056.94
2018-09-04T03:11:18.450Z,99062.36
2018-09-04T03:11:49.679Z,99061.16
2018-09-04T03:12:20.865Z,99058.88
2018-09-04T03:12:52.108Z,99068.45
2018-09-04T03:13:23.256Z,99066.67
2018-09-04T03:13:54.433Z,99064.16
2018-09-04T03:14:25.636Z,99068.28
2018-09-04T03:14:56.837Z,99064.06
2018-09-04T03:15:27.964Z,99061.28
2018-09-04T03:15:59.129Z,99065.50
2018-09-04T03:16:30.391Z,99063.95
2018-09-04T03:17:01.548Z,99063.81
2018-09-04T03:17:32.728Z,99059.46
2018-09-04T03:18:03.844Z,99062.98
2018-09-04T03:18:34.953Z,99063.70
2018-09-04T03:19:06.072Z,99058.86
2018-09-04T03:19:37.275Z,99055.84
2018-09-04T03:20:08.463Z,99062.13
2018-09-04T03:20:39.576Z,99060.46
2018-09-04T03:21:10.680Z,99059.23
2018-09-04T03:21:41.802Z,99036.37
2018-09-04T03:22:13.022Z,99061.66
2018-09-04T03:22:44.140Z,99062.29
2018-09-04T03:23:15.272Z,99060.97
2018-09-04T03:23:46.392Z,99060.97
2018-09-04T03:24:17.617Z,99060.23
2018-09-04T03:24:48.899Z,99060.84
2018-09-04T03:25:20.023Z,99064.95
2018-09-04T03:25:51.191Z,99062.43
2018-09-04T03:26:22.310Z,99068.34
2018-09-04T03:26:53.605Z,99059.77
2018-09-04T03:27:24.723Z,99060.41
2018-09-04T03:27:55.835Z,99063.16
2018-09-04T03:28:26.999Z,99061.14
2018-09-04T03:28:58.179Z,99058.12
2018-09-04T03:29:29.328Z,99057.16
2018-09-04T03:30:00.542Z,99056.19
2018-09-04T03:30:31.731Z,99053.63
2018-09-04T03:31:02.884Z,99050.38
2018-09-04T03:31:34.008Z,99058.25
2018-09-04T03:32:05.150Z,99056.56
2018-09-04T03:32:36.369Z,99052.11
2018-09-04T03:33:07.495Z,99054.86
2018-09-04T03:33:38.605Z,99058.25
2018-09-04T03:34:09.769Z,99057.05
2018-09-04T03:34:40.979Z,99055.36
2018-09-04T03:35:12.193Z,99053.20
2018-09-04T03:35:43.373Z,99057.88
2018-09-04T03:36:14.548Z,99053.54
2018-09-04T03:36:45.693Z,99051.88
2018-09-04T03:37:16.852Z,99048.22
2018-09-04T03:37:48.041Z,99049.55
2018-09-04T03:38:19.208Z,99047.63
2018-09-04T03:38:50.320Z,99047.27
2018-09-04T03:39:21.487Z,99045.10
2018-09-04T03:39:52.623Z,99045.94
2018-09-04T03:40:23.796Z,99047.27
2018-09-04T03:40:54.908Z,99045.34
2018-09-04T03:41:26.038Z,99046.06
2018-09-04T03:41:57.156Z,99050.61
2018-09-04T03:42:28.326Z,99044.84
2018-09-04T03:42:59.485Z,99049.19
2018-09-04T03:43:30.689Z,99044.34
2018-09-04T03:44:01.865Z,99046.40
2018-09-04T03:44:32.988Z,99051.94
2018-09-04T03:45:04.118Z,99043.61
2018-09-04T03:45:35.290Z,99047.59
2018-09-04T03:46:06.404Z,99047.23
2018-09-04T03:46:37.567Z,99048.22
2018-09-04T03:47:08.691Z,99048.92
2018-09-04T03:47:39.827Z,99047.95
2018-09-04T03:48:10.987Z,99046.99
2018-09-04T03:48:42.198Z,99045.03
2018-09-04T03:49:13.349Z,99050.24
2018-09-04T03:49:44.459Z,99042.74
2018-09-04T03:50:15.571Z,99047.59
2018-09-04T03:50:46.684Z,99042.14
2018-09-04T03:51:17.796Z,99051.07
2018-09-04T03:51:48.951Z,99048.05
2018-09-04T03:52:20.156Z,99047.59
2018-09-04T03:52:51.323Z,99051.20
2018-09-04T03:53:22.436Z,99048.69
2018-09-04T03:53:53.584Z,99047.22
2018-09-04T03:54:24.692Z,99050.71
2018-09-04T03:54:55.920Z,99053.27
2018-09-04T03:55:27.101Z,99051.80
2018-09-04T03:55:58.279Z,99057.48
2018-09-04T03:56:29.388Z,99053.96
2018-09-04T03:57:00.501Z,99050.84
2018-09-04T03:57:31.897Z,99060.47
2018-09-04T03:58:03.018Z,99057.58
2018-09-04T03:58:34.191Z,99063.03
2018-09-04T03:59:05.370Z,99059.17
2018-09-04T03:59:36.486Z,99067.61
2018-09-04T04:00:07.725Z,99067.61
2018-09-04T04:00:38.901Z,99071.59
2018-09-04T04:01:10.068Z,99070.41
2018-09-04T04:01:41.194Z,99074.52
2018-09-04T04:02:12.303Z,99067.15
2018-09-04T04:02:43.477Z,99071.99
2018-09-04T04:03:14.665Z,99071.63
2018-09-04T04:03:45.843Z,99070.80
2018-09-04T04:04:17.009Z,99068.73
2018-09-04T04:04:48.125Z,99067.05
2018-09-04T04:05:19.281Z,99067.64
2018-09-04T04:05:50.496Z,99068.64
2018-09-04T04:06:21.675Z,99066.22
2018-09-04T04:06:52.860Z,99069.60
2018-09-04T04:07:24.034Z,99072.63
2018-09-04T04:07:55.147Z,99078.56
2018-09-04T04:08:26.287Z,99072.75
2018-09-04T04:08:57.410Z,99069.27
2018-09-04T04:09:28.529Z,99069.40
2018-09-04T04:09:59.636Z,99069.27
2018-09-04T04:10:30.739Z,99072.88
2018-09-04T04:11:01.949Z,99073.84
2018-09-04T04:11:33.080Z,99068.53
2018-09-04T04:12:04.262Z,99071.19
2018-09-04T04:12:35.405Z,99072.16
2018-09-04T04:13:06.519Z,99073.48
2018-09-04T04:13:37.689Z,99071.32
2018-09-04T04:14:08.859Z,99068.80
2018-09-04T04:14:39.969Z,99065.52
2018-09-04T04:15:11.082Z,99072.16
2018-09-04T04:15:42.309Z,99066.84
2018-09-04T04:16:13.424Z,99069.86
2018-09-04T04:16:44.597Z,99069.40
2018-09-04T04:17:15.789Z,99066.25
2018-09-04T04:17:46.949Z,99063.33
2018-09-04T04:18:18.120Z,99063.00
2018-09-04T04:18:49.239Z,99062.86
2018-09-04T04:19:20.453Z,99070.70
2018-09-04T04:19:51.562Z,99058.75
2018-09-04T04:20:22.723Z,99061.27
2018-09-04T04:20:53.954Z,99063.23
2018-09-04T04:21:25.133Z,99062.00
2018-09-04T04:21:56.239Z,99064.66
2018-09-04T04:22:27.401Z,99062.96
2018-09-04T04:22:58.640Z,99067.41
2018-09-04T04:23:29.822Z,99062.56
2018-09-04T04:24:01.024Z,99062.20
2018-09-04T04:24:32.200Z,99060.73
2018-09-04T04:25:03.315Z,99063.39
2018-09-04T04:25:34.484Z,99065.91
2018-09-04T04:26:05.592Z,99061.70
2018-09-04T04:26:36.699Z,99059.27
2018-09-04T04:27:07.818Z,99058.64
2018-09-04T04:27:38.992Z,99059.12
2018-09-04T04:28:10.152Z,99062.14
2018-09-04T04:28:41.271Z,99061.55
2018-09-04T04:29:12.494Z,99063.20
2018-09-04T04:29:43.608Z,99061.95
2018-09-04T04:30:14.728Z,99058.34
2018-09-04T04:30:45.888Z,99060.12
2018-09-04T04:31:17.126Z,99060.84
2018-09-04T04:31:48.349Z,99057.55
2018-09-04T04:32:19.510Z,99063.23
2018-09-04T04:32:50.709Z,99058.88
2018-09-04T04:33:21.877Z,99061.54
2018-09-04T04:33:53.003Z,99054.30
2018-09-04T04:34:24.118Z,99050.53
2018-09-04T04:34:55.333Z,99056.20
2018-09-04T04:35:26.558Z,99056.01
2018-09-04T04:35:57.728Z,99058.15
2018-09-04T04:36:28.977Z,99057.41
2018-09-04T04:37:00.156Z,99055.78
2018-09-04T04:37:31.371Z,99058.41
2018-09-04T04:38:02.530Z,99057.78
2018-09-04T04:38:33.684Z,99061.98
2018-09-04T04:39:04.877Z,99060.73
2018-09-04T04:39:36.097Z,99059.48
2018-09-04T04:40:07.289Z,99057.25
2018-09-04T04:40:38.379Z,99058.27
2018-09-04T04:41:09.550Z,99061.95
2018-09-04T04:41:40.673Z,99059.12
2018-09-04T04:42:11.819Z,99053.86
2018-09-04T04:42:42.989Z,99050.95
2018-09-04T04:43:14.164Z,99061.67
2018-09-04T04:43:45.348Z,99056.20
2018-09-04T04:44:16.521Z,99058.47
2018-09-04T04:44:47.700Z,99059.27
2018-09-04T04:45:18.865Z,99055.87
2018-09-04T04:45:50.091Z,99060.23
2018-09-04T04:46:21.257Z,99059.47
2018-09-04T04:46:52.426Z,99060.52
2018-09-04T04:47:23.545Z,99063.54
2018-09-04T04:47:54.741Z,99058.64
2018-09-04T04:48:25.980Z,99055.58
2018-09-04T04:48:57.133Z,99056.36
2018-09-04T04:49:28.314Z,99058.95
2018-09-04T04:49:59.545Z,99060.73
2018-09-04T04:50:30.761Z,99056.30
2018-09-04T04:51:01.890Z,99061.79
2018-09-04T04:51:33.005Z,99064.37
2018-09-04T04:52:04.112Z,99063.90
2018-09-04T04:52:35.245Z,99061.85
2018-09-04T04:53:06.430Z,99061.50
2018-09-04T04:53:37.556Z,99064.05
2018-09-04T04:54:08.668Z,99063.96
2018-09-04T04:54:39.836Z,99057.92
2018-09-04T04:55:11.077Z,99061.75
2018-09-04T04:55:42.232Z,99067.30
2018-09-04T04:56:13.339Z,99065.05
2018-09-04T04:56:44.534Z,99064.84
2018-09-04T04:57:15.729Z,99063.45
2018-09-04T04:57:46.897Z,99067.45
2018-09-04T04:58:18.080Z,99067.50
2018-09-04T04:58:49.209Z,99062.23
2018-09-04T04:59:20.401Z,99064.47
2018-09-04T04:59:51.537Z,99060.53
2018-09-04T05:00:22.805Z,99063.75
2018-09-04T05:00:54.017Z,99068.72
2018-09-04T05:01:25.198Z,99073.29
2018-09-04T05:01:56.324Z,99069.69
2018-09-04T05:02:27.481Z,99074.45
2018-09-04T05:02:58.666Z,99069.55
2018-09-04T05:03:29.785Z,99072.63
2018-09-04T05:04:01.015Z,99073.89
2018-09-04T05:04:32.201Z,99076.76
2018-09-04T05:05:03.417Z,99076.48
2018-09-04T05:05:34.606Z,99070.84
2018-09-04T05:06:05.791Z,99076.48
2018-09-04T05:06:36.927Z,99070.80
2018-09-04T05:07:08.150Z,99075.78
2018-09-04T05:07:39.329Z,99071.93
2018-09-04T05:08:10.448Z,99073.11
2018-09-04T05:08:41.568Z,99070.99
2018-09-04T05:09:12.802Z,99077.64
2018-09-04T05:09:43.981Z,99074.31
2018-09-04T05:10:15.171Z,99075.72
2018-09-04T05:10:46.293Z,99079.02
2018-09-04T05:11:17.478Z,99080.05
2018-09-04T05:11:48.590Z,99076.04
2018-09-04T05:12:19.814Z,99074.39
2018-09-04T05:12:50.940Z,99070.94
2018-09-04T05:13:22.062Z,99073.89
2018-09-04T05:13:53.233Z,99072.95
2018-09-04T05:14:24.368Z,99075.18
2018-09-04T05:14:55.492Z,99074.05
2018-09-04T05:15:26.692Z,99073.52
2018-09-04T05:15:57.860Z,99074.08
2018-09-04T05:16:28.989Z,99066.81
2018-09-04T05:17:00.108Z,99074.39
2018-09-04T05:17:31.328Z,99070.31
2018-09-04T05:18:02.509Z,99070.19
2018-09-04T05:18:33.648Z,99068.90
2018-09-04T05:19:04.812Z,99064.89
2018-09-04T05:19:35.948Z,99061.27
2018-09-04T05:20:07.121Z,99062.41
2018-09-04T05:20:38.313Z,99064.92
2018-09-04T05:21:09.441Z,99064.06
2018-09-04T05:21:40.601Z,99062.44
2018-09-04T05:22:11.797Z,99067.55
2018-09-04T05:22:43.082Z,99064.37
2018-09-04T05:23:14.242Z,99062.94
2018-09-04T05:23:45.428Z,99065.30
2018-09-04T05:24:16.608Z,99062.54
2018-09-04T05:24:47.738Z,99063.75
2018-09-04T05:25:18.929Z,99064.45
2018-09-04T05:25:50.054Z,99057.30
2018-09-04T05:26:21.527Z,99056.15
2018-09-04T05:26:52.643Z,99061.81
2018-09-04T05:27:23.770Z,99057.48
2018-09-04T05:27:54.940Z,99059.49
2018-09-04T05:28:26.060Z,99057.55
2018-09-04T05:28:57.238Z,99061.17
2018-09-04T05:29:28.455Z,99058.70
2018-09-04T05:29:59.601Z,99053.80
2018-09-04T05:30:30.736Z,99053.06
2018-09-04T05:31:01.920Z,99051.22
2018-09-04T05:31:33.035Z,99054.59
2018-09-04T05:32:04.155Z,99055.13
2018-09-04T05:32:35.273Z,99054.05
2018-09-04T05:33:06.532Z,99057.64
2018-09-04T05:33:37.652Z,99058.59
2018-09-04T05:34:08.824Z,99038.92
2018-09-04T05:34:39.943Z,99056.49
2018-09-04T05:35:11.172Z,99057.19
2018-09-04T05:35:42.355Z,99049.70
2018-09-04T05:36:13.527Z,99052.19
2018-09-04T05:36:44.756Z,99054.17
2018-09-04T05:37:15.893Z,99055.05
2018-09-04T05:37:47.026Z,99049.99
2018-09-04T05:38:18.187Z,99055.19
2018-09-04T05:38:49.477Z,99052.83
2018-09-04T05:39:20.662Z,99052.70
2018-09-04T05:39:51.794Z,99051.34
2018-09-04T05:40:22.973Z,99048.13
2018-09-04T05:40:54.196Z,99049.27
2018-09-04T05:41:25.361Z,99043.89
2018-09-04T05:41:56.548Z,99047.45
2018-09-04T05:42:27.721Z,99050.23
2018-09-04T05:42:58.907Z,99049.97
2018-09-04T05:43:30.060Z,99048.51
2018-09-04T05:44:01.237Z,99047.68
2018-09-04T05:44:32.426Z,99047.77
2018-09-04T05:45:03.573Z,99053.18
2018-09-04T05:45:34.691Z,99044.16
2018-09-04T05:46:05.872Z,99041.19
2018-09-04T05:46:37.057Z,99040.58
2018-09-04T05:47:08.178Z,99041.87
2018-09-04T05:47:39.305Z,99047.24
2018-09-04T05:48:10.440Z,99045.20
2018-09-04T05:48:41.632Z,99042.51
2018-09-04T05:49:12.808Z,99036.00
2018-09-04T05:49:44.048Z,99039.38
2018-09-04T05:50:15.178Z,99038.87
2018-09-04T05:50:46.403Z,99040.91
2018-09-04T05:51:17.620Z,99044.12
2018-09-04T05:51:48.752Z,99038.89
2018-09-04T05:52:20.001Z,99040.28
2018-09-04T05:52:51.199Z,99039.24
2018-09-04T05:53:22.320Z,99039.22
2018-09-04T05:53:53.639Z,99034.50
2018-09-04T05:54:24.827Z,99038.70
2018-09-04T05:54:55.987Z,99035.44
2018-09-04T05:55:27.456Z,99032.45
2018-09-04T05:55:58.581Z,99036.89
2018-09-04T05:56:29.726Z,99027.07
2018-09-04T05:57:00.982Z,99031.72
2018-09-04T05:57:32.186Z,99030.86
2018-09-04T05:58:03.315Z,99031.56
2018-09-04T05:58:34.573Z,99034.88
2018-09-04T05:59:05.852Z,99030.49
2018-09-04T05:59:36.993Z,99027.09
2018-09-04T06:00:08.271Z,99029.12
2018-09-04T06:00:39.469Z,99024.31
2018-09-04T06:01:10.654Z,99023.19
2018-09-04T06:01:41.826Z,99026.21
2018-09-04T06:02:13.083Z,99024.16
2018-09-04T06:02:44.549Z,99022.17
2018-09-04T06:03:15.784Z,99030.92
2018-09-04T06:03:47.065Z,99024.71
2018-09-04T06:04:18.260Z,99024.23
2018-09-04T06:04:49.412Z,99025.52
2018-09-04T06:05:20.679Z,99018.51
2018-09-04T06:05:51.876Z,99018.53